AGROMETEOROLOŠKI PORTAL

vinorodna pokrajina

Temelj dobrega kmetovanja

Pregled podatkov za lokacijo Braslovče (Pšaker), meteorološka postaja 39323

Pregled senzorjev na lokaciji

ID Ime Zadnja
vrednost
Datum in čas
meritve
(lokalni čas)
Tip
senzorja
5111 Zračni tlak (hPa) 981 hPa 4.10.2022 15:00 BP1 500 - 1500 hPa
2041 Omočenost lista (1,5 m) (U) 0 U 4.10.2022 15:00 A730WET
4947 Padavine (mm) 0 mm 4.10.2022 15:00 Generic 0.2 mm
1915 Relativna zračna vlaga (2 m) (%RH) 57 %RH 4.10.2022 15:00 50YA
1914 Temperatura (2 m) (°C) 16,7 °C 4.10.2022 15:00 50YA
5112 Hitrost vetra (3 m) (km/h) 3 km/h 4.10.2022 15:00 Generic 200 km/h

Pregled podatkov zadnjih 24 ur

Zap.
št.
Datum in čas
(lokalni čas)
Braslovče (Pšaker)
Zračni
tlak
Omočenost
lista
(1,5
m)
Padavine Relativna
zračna
vlaga
(2
m)
Temperatura
(2
m)
Hitrost
vetra
(3
m)
1 4.10.2022 15:00 981,1 0 0 57,2 16,7 3
2 4.10.2022 14:30 981,3 0 0 57,3 16,8 2,8
3 4.10.2022 14:00 981,3 0 0 55,2 17,2 3,7
4 4.10.2022 13:30 981,3 0 0 53,8 17,9 4,7
5 4.10.2022 13:00 981,6 0 0 55,5 17,8 4,3
6 4.10.2022 12:30 981,8 0 0 56,7 17,7 4,2
7 4.10.2022 12:00 982,1 0 0 58,2 17,1 3,8
8 4.10.2022 11:30 982,1 0 0 57,6 16,4 2,3
9 4.10.2022 11:00 982,3 1 0 64,2 14,3 2,4
10 4.10.2022 10:30 982,3 10 0 76,2 12,5 2,3
11 4.10.2022 10:00 982,3 10 0 86 11 1,8
12 4.10.2022 09:30 982,3 10 0 97,1 9,2 1,5
13 4.10.2022 09:00 982,3 10 0 99,9 7 0,9
14 4.10.2022 08:30 982,3 10 0 99,9 5,7 0,4
15 4.10.2022 08:00 982,3 10 0 99,9 4,1 0,2
16 4.10.2022 07:30 982,1 10 0 99,9 3 0,6
17 4.10.2022 07:00 981,6 10 0 99,9 3 0,6
18 4.10.2022 06:30 981,3 10 0 99,9 2,9 0,3
19 4.10.2022 06:00 981,3 10 0 99,9 3,1 0,6
20 4.10.2022 05:30 981,3 10 0 99,9 3,2 0,2
21 4.10.2022 05:00 981,6 10 0 99,9 3,6 0,4
22 4.10.2022 04:30 981,3 10 0 99,9 3,7 0,5
23 4.10.2022 04:00 981,6 10 0 99,9 4 0,2
24 4.10.2022 03:30 982,1 10 0 99,9 4,3 0,4
25 4.10.2022 03:00 982,1 10 0 99,9 4,7 0,3
26 4.10.2022 02:30 982,3 10 0 99,9 4,5 0,3
27 4.10.2022 02:00 982,1 10 0 99,9 4,6 0,3
28 4.10.2022 01:30 981,8 10 0 99,9 4,8 0,3
29 4.10.2022 01:00 981,6 9 0 99,9 5,1 0
30 4.10.2022 00:30 981,6 8 0 99,9 5,3 1
31 4.10.2022 00:00 981,3 6 0 99,9 5,7 0,2
32 3.10.2022 23:30 981,3 4 0 99,9 6 0,8
33 3.10.2022 23:00 981,3 3 0 99,9 6,3 0,4
34 3.10.2022 22:30 981,3 2 0 99,7 6,7 0,6
35 3.10.2022 22:00 981,3 2 0 99,1 7 0,4
36 3.10.2022 21:30 981,1 1 0 98,6 7,5 0,6
37 3.10.2022 21:00 980,6 1 0 98 8,1 0,5
38 3.10.2022 20:30 980,3 0 0 97,2 8,8 0,7
39 3.10.2022 20:00 980,3 0 0 96,3 9,3 1,8
40 3.10.2022 19:30 979,8 0 0 95,1 9,9 1,1
41 3.10.2022 19:00 979,3 0 0 93,8 10,9 1
42 3.10.2022 18:30 979,3 0 0 91,4 11,7 0,6
43 3.10.2022 18:00 978,5 0 0 88,5 12,2 1,2
44 3.10.2022 17:30 978,3 0 0 85 13 1,5
45 3.10.2022 17:00 978,3 0 0 77,6 14,2 3,2
46 3.10.2022 16:30 978,3 0 0 69,4 15,4 4,3